createdAt,value
2018-02-27T00:01:49.691Z,83.56
2018-02-27T00:04:17.305Z,83.46
2018-02-27T00:06:44.865Z,83.77
2018-02-27T00:09:12.482Z,83.62
2018-02-27T00:11:42.456Z,83.40
2018-02-27T00:14:10.099Z,83.29
2018-02-27T00:16:37.713Z,83.39
2018-02-27T00:19:05.327Z,83.14
2018-02-27T00:21:32.931Z,81.74
2018-02-27T00:24:00.501Z,81.73
2018-02-27T00:26:28.095Z,81.32
2018-02-27T00:28:55.837Z,80.65
2018-02-27T00:31:23.434Z,80.44
2018-02-27T00:33:51.038Z,80.71
2018-02-27T00:36:18.608Z,80.45
2018-02-27T00:38:46.354Z,79.90
2018-02-27T00:41:13.982Z,79.41
2018-02-27T00:43:41.557Z,79.38
2018-02-27T00:46:09.125Z,79.10
2018-02-27T00:48:36.815Z,78.91
2018-02-27T00:51:04.388Z,79.28
2018-02-27T00:53:32.130Z,79.95
2018-02-27T00:55:59.736Z,79.29
2018-02-27T00:58:27.310Z,79.19
2018-02-27T01:00:54.925Z,79.72
2018-02-27T01:03:22.544Z,79.85
2018-02-27T01:05:50.235Z,79.23
2018-02-27T01:08:17.800Z,79.15
2018-02-27T01:10:45.573Z,79.22
2018-02-27T01:13:13.321Z,79.24
2018-02-27T01:15:41.108Z,79.12
2018-02-27T01:18:08.751Z,79.28
2018-02-27T01:20:36.327Z,78.72
2018-02-27T01:23:03.909Z,78.85
2018-02-27T01:25:31.511Z,78.86
2018-02-27T01:27:59.083Z,79.46
2018-02-27T01:30:26.862Z,79.92
2018-02-27T01:32:54.486Z,79.79
2018-02-27T01:35:22.050Z,79.61
2018-02-27T01:37:49.618Z,79.76
2018-02-27T01:40:17.240Z,80.11
2018-02-27T01:42:44.823Z,79.85
2018-02-27T01:45:12.630Z,80.13
2018-02-27T01:47:40.244Z,80.43
2018-02-27T01:50:07.955Z,80.58
2018-02-27T01:52:35.611Z,80.65
2018-02-27T01:55:03.238Z,81.15
2018-02-27T01:57:30.827Z,80.91
2018-02-27T01:59:58.598Z,81.24
2018-02-27T02:02:26.200Z,81.25
2018-02-27T02:04:53.776Z,80.92
2018-02-27T02:07:21.384Z,81.52
2018-02-27T02:09:49.080Z,81.49
2018-02-27T02:12:16.660Z,81.23
2018-02-27T02:14:44.237Z,81.14
2018-02-27T02:17:11.856Z,81.29
2018-02-27T02:19:39.430Z,81.10
2018-02-27T02:22:07.150Z,80.81
2018-02-27T02:24:34.751Z,80.46
2018-02-27T02:27:02.316Z,79.82
2018-02-27T02:29:29.889Z,79.81
2018-02-27T02:31:57.515Z,79.73
2018-02-27T02:34:25.266Z,80.40
2018-02-27T02:36:52.853Z,80.18
2018-02-27T02:39:20.443Z,79.32
2018-02-27T02:41:59.826Z,79.30
2018-02-27T02:44:27.436Z,79.80
2018-02-27T02:46:55.006Z,79.80
2018-02-27T02:49:22.593Z,80.25
2018-02-27T02:51:50.208Z,80.01
2018-02-27T02:54:17.789Z,80.28
2018-02-27T02:56:45.366Z,80.88
2018-02-27T02:59:12.971Z,81.21
2018-02-27T03:01:40.538Z,81.25
2018-02-27T03:04:08.121Z,81.23
2018-02-27T03:06:35.932Z,81.12
2018-02-27T03:09:03.607Z,80.82
2018-02-27T03:11:31.258Z,80.60
2018-02-27T03:13:58.881Z,80.44
2018-02-27T03:16:26.461Z,80.78
2018-02-27T03:18:54.242Z,80.53
2018-02-27T03:21:21.842Z,80.14
2018-02-27T03:23:49.426Z,79.91
2018-02-27T03:26:16.993Z,79.97
2018-02-27T03:28:44.604Z,79.78
2018-02-27T03:31:12.210Z,80.09
2018-02-27T03:33:39.783Z,79.61
2018-02-27T03:36:07.396Z,79.61
2018-02-27T03:38:34.964Z,79.37
2018-02-27T03:41:02.553Z,79.65
2018-02-27T03:43:30.163Z,79.45
2018-02-27T03:45:57.728Z,79.35
2018-02-27T03:48:25.327Z,79.56
2018-02-27T03:50:53.028Z,80.21
2018-02-27T03:53:20.600Z,80.58
2018-02-27T03:55:48.173Z,80.71
2018-02-27T03:58:15.792Z,80.71
2018-02-27T04:00:43.468Z,80.82
2018-02-27T04:03:11.037Z,80.72
2018-02-27T04:05:38.648Z,80.76
2018-02-27T04:08:06.236Z,80.89
2018-02-27T04:10:33.821Z,81.16
2018-02-27T04:13:01.428Z,81.03
2018-02-27T04:15:29.000Z,81.02
2018-02-27T04:17:56.582Z,80.94
2018-02-27T04:20:24.196Z,80.95
2018-02-27T04:22:51.774Z,80.62
2018-02-27T04:25:19.378Z,81.00
2018-02-27T04:27:47.146Z,81.58
2018-02-27T04:30:14.812Z,80.91
2018-02-27T04:32:42.384Z,80.97
2018-02-27T04:35:10.139Z,81.54
2018-02-27T04:37:37.733Z,82.04
2018-02-27T04:40:05.295Z,81.34
2018-02-27T04:42:32.911Z,81.40
2018-02-27T04:45:00.597Z,81.58
2018-02-27T04:47:28.179Z,81.63
2018-02-27T04:49:55.806Z,81.66
2018-02-27T04:52:23.394Z,81.49
2018-02-27T04:54:50.998Z,81.40
2018-02-27T04:57:18.614Z,81.40
2018-02-27T04:59:46.191Z,82.05
2018-02-27T05:02:13.811Z,82.01
2018-02-27T05:04:41.413Z,82.22
2018-02-27T05:07:09.138Z,81.82
2018-02-27T05:09:36.797Z,81.91
2018-02-27T05:12:04.399Z,81.71
2018-02-27T05:14:31.992Z,81.70
2018-02-27T05:16:59.554Z,81.84
2018-02-27T05:19:27.163Z,81.82
2018-02-27T05:21:54.810Z,81.81
2018-02-27T05:24:22.752Z,81.34
2018-02-27T05:26:50.363Z,81.26
2018-02-27T05:29:17.950Z,80.98
2018-02-27T05:31:45.545Z,81.66
2018-02-27T05:34:13.164Z,81.13
2018-02-27T05:36:40.756Z,80.26
2018-02-27T05:39:08.331Z,80.04
2018-02-27T05:41:35.940Z,80.21
2018-02-27T05:44:03.513Z,80.51
2018-02-27T05:46:31.102Z,80.22
2018-02-27T05:48:58.840Z,80.01
2018-02-27T05:51:26.432Z,78.74
2018-02-27T05:53:54.015Z,77.63
2018-02-27T05:56:21.623Z,77.81
2018-02-27T05:58:49.425Z,78.97
2018-02-27T06:01:16.996Z,79.24
2018-02-27T06:03:44.651Z,77.13
2018-02-27T06:06:12.245Z,77.35
2018-02-27T06:08:39.815Z,77.65
2018-02-27T06:11:07.466Z,77.19
2018-02-27T06:13:35.072Z,77.39
2018-02-27T06:16:02.856Z,76.93
2018-02-27T06:18:30.477Z,77.43
2018-02-27T06:20:58.048Z,76.75
2018-02-27T06:23:25.624Z,75.83
2018-02-27T06:25:53.244Z,76.34
2018-02-27T06:28:20.808Z,81.26
2018-02-27T06:30:48.391Z,90.61
2018-02-27T06:33:16.007Z,87.83
2018-02-27T06:35:43.579Z,79.87
2018-02-27T06:38:11.161Z,83.18
2018-02-27T06:40:39.061Z,75.80
2018-02-27T06:43:06.740Z,78.02
2018-02-27T06:45:34.325Z,72.02
2018-02-27T06:48:02.047Z,72.33
2018-02-27T06:50:29.732Z,72.71
2018-02-27T06:52:57.318Z,71.34
2018-02-27T06:55:24.955Z,72.47
2018-02-27T06:57:52.539Z,72.90
2018-02-27T07:00:20.165Z,73.21
2018-02-27T07:02:47.793Z,72.62
2018-02-27T07:05:15.339Z,72.78
2018-02-27T07:07:42.920Z,73.00
2018-02-27T07:10:10.788Z,72.98
2018-02-27T07:12:38.367Z,73.78
2018-02-27T07:15:05.947Z,74.08
2018-02-27T07:17:33.564Z,73.37
2018-02-27T07:20:01.143Z,72.56
2018-02-27T07:22:28.727Z,72.04
2018-02-27T07:24:56.339Z,71.49
2018-02-27T07:27:23.917Z,70.33
2018-02-27T07:29:51.491Z,69.21
2018-02-27T07:32:19.128Z,69.09
2018-02-27T07:34:46.693Z,69.47
2018-02-27T07:37:14.297Z,68.71
2018-02-27T07:39:41.897Z,68.64
2018-02-27T07:42:09.495Z,68.11
2018-02-27T07:44:37.043Z,67.37
2018-02-27T07:47:04.655Z,66.45
2018-02-27T07:49:32.275Z,66.98
2018-02-27T07:51:59.832Z,66.33
2018-02-27T07:54:27.434Z,66.76
2018-02-27T07:56:55.028Z,68.25
2018-02-27T07:59:22.648Z,68.75
2018-02-27T08:01:50.488Z,68.85
2018-02-27T08:04:18.521Z,68.11
2018-02-27T08:06:46.070Z,66.18
2018-02-27T08:09:13.686Z,65.08
2018-02-27T08:11:41.242Z,64.30
2018-02-27T08:14:08.837Z,63.34
2018-02-27T08:16:36.412Z,64.57
2018-02-27T08:19:04.029Z,65.09
2018-02-27T08:21:31.601Z,64.53
2018-02-27T08:23:59.210Z,65.42
2018-02-27T08:26:26.765Z,66.05
2018-02-27T08:28:54.327Z,66.04
2018-02-27T08:31:21.939Z,66.43
2018-02-27T08:33:49.533Z,65.51
2018-02-27T08:36:17.097Z,65.49
2018-02-27T08:38:44.727Z,63.12
2018-02-27T08:41:12.498Z,62.72
2018-02-27T08:43:40.124Z,64.26
2018-02-27T08:46:07.749Z,64.37
2018-02-27T08:48:35.318Z,63.78
2018-02-27T08:51:03.024Z,64.02
2018-02-27T08:53:30.636Z,63.18
2018-02-27T08:55:58.250Z,61.39
2018-02-27T08:58:28.216Z,60.38
2018-02-27T09:00:55.937Z,58.85
2018-02-27T09:03:23.507Z,58.21
2018-02-27T09:05:51.069Z,57.41
2018-02-27T09:08:18.672Z,56.52
2018-02-27T09:10:46.258Z,57.09
2018-02-27T09:13:13.833Z,57.01
2018-02-27T09:15:41.442Z,57.44
2018-02-27T09:18:09.065Z,57.53
2018-02-27T09:20:36.682Z,58.40
2018-02-27T09:23:04.293Z,59.66
2018-02-27T09:25:31.898Z,57.80
2018-02-27T09:27:59.481Z,60.43
2018-02-27T09:30:27.095Z,57.94
2018-02-27T09:32:54.705Z,58.13
2018-02-27T09:35:22.284Z,57.88
2018-02-27T09:37:49.917Z,57.42
2018-02-27T09:40:17.491Z,56.86
2018-02-27T09:42:45.998Z,55.05
2018-02-27T09:45:13.622Z,55.08
2018-02-27T09:47:41.187Z,54.23
2018-02-27T09:50:08.749Z,52.91
2018-02-27T09:52:36.336Z,53.47
2018-02-27T09:55:03.903Z,53.45
2018-02-27T09:57:31.473Z,52.21
2018-02-27T09:59:59.070Z,52.34
2018-02-27T10:02:26.660Z,52.74
2018-02-27T10:04:54.255Z,51.56
2018-02-27T10:07:21.898Z,52.06
2018-02-27T10:09:49.482Z,54.38
2018-02-27T10:12:17.027Z,53.77
2018-02-27T10:14:44.607Z,52.52
2018-02-27T10:17:12.212Z,51.97
2018-02-27T10:19:39.795Z,50.61
2018-02-27T10:22:07.449Z,50.31
2018-02-27T10:24:35.037Z,52.16
2018-02-27T10:27:02.604Z,52.48
2018-02-27T10:29:30.201Z,53.11
2018-02-27T10:31:57.809Z,51.30
2018-02-27T10:34:25.377Z,49.29
2018-02-27T10:36:52.997Z,48.27
2018-02-27T10:39:20.592Z,47.53
2018-02-27T10:41:48.159Z,49.20
2018-02-27T10:44:15.756Z,53.54
2018-02-27T10:46:43.328Z,53.98
2018-02-27T10:49:10.925Z,55.28
2018-02-27T10:51:38.524Z,58.15
2018-02-27T10:54:06.094Z,59.99
2018-02-27T10:56:33.676Z,62.94
2018-02-27T10:59:01.342Z,61.22
2018-02-27T11:01:28.952Z,62.15
2018-02-27T11:03:56.501Z,62.16
2018-02-27T11:06:24.120Z,61.82
2018-02-27T11:08:51.700Z,62.06
2018-02-27T11:11:19.329Z,61.57
2018-02-27T11:13:46.956Z,60.89
2018-02-27T11:16:14.540Z,58.97
2018-02-27T11:18:42.240Z,59.05
2018-02-27T11:21:09.909Z,58.81
2018-02-27T11:23:37.478Z,57.55
2018-02-27T11:26:05.052Z,57.05
2018-02-27T11:28:32.903Z,56.38
2018-02-27T11:31:00.564Z,57.34
2018-02-27T11:33:28.139Z,55.93
2018-02-27T11:35:55.768Z,53.75
2018-02-27T11:38:23.558Z,54.70
2018-02-27T11:40:51.110Z,52.47
2018-02-27T11:43:18.738Z,52.72
2018-02-27T11:45:46.305Z,53.53
2018-02-27T11:48:13.889Z,54.55
2018-02-27T11:50:41.486Z,57.19
2018-02-27T11:53:09.044Z,55.69
2018-02-27T11:55:36.618Z,54.09
2018-02-27T11:58:04.424Z,52.77
2018-02-27T12:00:32.018Z,52.33
2018-02-27T12:02:59.575Z,52.43
2018-02-27T12:05:27.229Z,51.79
2018-02-27T12:07:54.800Z,50.15
2018-02-27T12:10:22.351Z,49.56
2018-02-27T12:12:50.009Z,50.98
2018-02-27T12:15:17.580Z,51.87
2018-02-27T12:17:45.140Z,50.21
2018-02-27T12:20:12.734Z,48.02
2018-02-27T12:22:40.304Z,47.88
2018-02-27T12:25:07.876Z,46.25
2018-02-27T12:27:35.480Z,47.67
2018-02-27T12:30:03.051Z,46.91
2018-02-27T12:32:30.604Z,44.62
2018-02-27T12:34:58.180Z,44.34
2018-02-27T12:37:25.747Z,47.22
2018-02-27T12:39:53.309Z,46.59
2018-02-27T12:42:20.946Z,44.85
2018-02-27T12:44:48.514Z,45.03
2018-02-27T12:47:16.104Z,49.50
2018-02-27T12:49:43.727Z,50.08
2018-02-27T12:52:11.303Z,52.13
2018-02-27T12:54:38.915Z,51.54
2018-02-27T12:57:06.520Z,53.13
2018-02-27T12:59:34.102Z,55.55
2018-02-27T13:02:01.689Z,55.89
2018-02-27T13:04:29.280Z,55.46
2018-02-27T13:06:56.831Z,54.37
2018-02-27T13:09:24.389Z,54.93
2018-02-27T13:11:51.988Z,54.63
2018-02-27T13:14:19.550Z,54.79
2018-02-27T13:16:47.140Z,55.83
2018-02-27T13:19:14.748Z,56.46
2018-02-27T13:21:42.306Z,54.46
2018-02-27T13:24:09.879Z,54.94
2018-02-27T13:26:37.500Z,55.70
2018-02-27T13:29:05.065Z,56.85
2018-02-27T13:31:32.639Z,57.62
2018-02-27T13:34:00.257Z,56.25
2018-02-27T13:36:27.841Z,56.27
2018-02-27T13:38:55.423Z,57.04
2018-02-27T13:41:23.060Z,58.12
2018-02-27T13:43:50.639Z,57.32
2018-02-27T13:46:18.204Z,59.24
2018-02-27T13:48:46.021Z,59.90
2018-02-27T13:51:13.443Z,60.29
2018-02-27T13:53:41.180Z,60.44
2018-02-27T13:56:08.858Z,60.74
2018-02-27T13:58:36.432Z,60.25
2018-02-27T14:01:03.993Z,60.19
2018-02-27T14:03:31.857Z,60.17
2018-02-27T14:05:59.426Z,60.18
2018-02-27T14:08:27.340Z,60.14
2018-02-27T14:10:55.211Z,61.39
2018-02-27T14:13:22.788Z,61.26
2018-02-27T14:15:50.362Z,62.73
2018-02-27T14:18:17.978Z,61.52
2018-02-27T14:20:45.558Z,61.28
2018-02-27T14:23:13.128Z,60.45
2018-02-27T14:25:40.715Z,59.56
2018-02-27T14:28:08.298Z,59.53
2018-02-27T14:30:35.949Z,59.30
2018-02-27T14:33:03.577Z,59.56
2018-02-27T14:35:32.026Z,59.22
2018-02-27T14:37:59.600Z,59.29
2018-02-27T14:40:27.202Z,60.01
2018-02-27T14:42:54.775Z,58.71
2018-02-27T14:45:22.330Z,58.51
2018-02-27T14:47:49.925Z,58.95
2018-02-27T14:50:17.638Z,59.07
2018-02-27T14:52:45.215Z,59.79
2018-02-27T14:55:12.861Z,60.75
2018-02-27T14:57:40.599Z,60.48
2018-02-27T15:00:08.273Z,61.11
2018-02-27T15:02:35.880Z,61.70
2018-02-27T15:05:03.502Z,62.83
2018-02-27T15:07:31.061Z,61.92
2018-02-27T15:09:58.676Z,61.67
2018-02-27T15:12:26.305Z,62.15
2018-02-27T15:14:53.939Z,63.25
2018-02-27T15:17:21.606Z,63.99
2018-02-27T15:19:49.377Z,64.47
2018-02-27T15:22:16.976Z,66.03
2018-02-27T15:24:44.595Z,65.27
2018-02-27T15:27:12.561Z,64.94
2018-02-27T15:29:40.128Z,66.48
2018-02-27T15:32:07.733Z,66.75
2018-02-27T15:34:35.295Z,68.04
2018-02-27T15:37:02.872Z,68.61
2018-02-27T15:39:30.464Z,68.94
2018-02-27T15:41:58.019Z,68.37
2018-02-27T15:44:25.797Z,67.74
2018-02-27T15:46:53.392Z,67.73
2018-02-27T15:49:20.996Z,68.88
2018-02-27T15:51:48.566Z,68.62
2018-02-27T15:54:16.234Z,69.24
2018-02-27T15:56:43.890Z,69.08
2018-02-27T15:59:11.462Z,69.44
2018-02-27T16:01:39.088Z,70.50
2018-02-27T16:04:06.944Z,69.08
2018-02-27T16:06:34.530Z,69.46
2018-02-27T16:09:02.208Z,70.49
2018-02-27T16:11:29.791Z,70.21
2018-02-27T16:13:57.363Z,70.38
2018-02-27T16:16:25.026Z,69.83
2018-02-27T16:18:52.750Z,70.35
2018-02-27T16:21:20.464Z,71.25
2018-02-27T16:23:48.102Z,70.72
2018-02-27T16:26:15.687Z,70.77
2018-02-27T16:28:43.256Z,71.77
2018-02-27T16:31:10.858Z,71.53
2018-02-27T16:33:38.522Z,72.51
2018-02-27T16:36:06.121Z,73.22
2018-02-27T16:38:33.815Z,73.42
2018-02-27T16:41:01.400Z,73.54
2018-02-27T16:43:29.009Z,74.05
2018-02-27T16:45:56.599Z,73.41
2018-02-27T16:48:24.189Z,73.63
2018-02-27T16:50:51.789Z,73.91
2018-02-27T16:53:19.795Z,73.71
2018-02-27T16:55:47.372Z,74.17
2018-02-27T16:58:15.030Z,73.37
2018-02-27T17:00:42.994Z,74.08
2018-02-27T17:03:10.668Z,74.22
2018-02-27T17:05:38.335Z,73.57
2018-02-27T17:08:05.999Z,73.04
2018-02-27T17:10:33.579Z,73.07
2018-02-27T17:13:01.495Z,72.78
2018-02-27T17:15:29.065Z,73.40
2018-02-27T17:17:56.855Z,73.76
2018-02-27T17:20:24.457Z,74.32
2018-02-27T17:22:52.054Z,74.66
2018-02-27T17:25:20.076Z,74.23
2018-02-27T17:27:47.970Z,74.41
2018-02-27T17:30:15.551Z,73.74
2018-02-27T17:32:43.248Z,74.28
2018-02-27T17:35:11.015Z,74.34
2018-02-27T17:37:38.603Z,74.69
2018-02-27T17:40:06.189Z,74.21
2018-02-27T17:42:33.812Z,74.72
2018-02-27T17:45:01.748Z,74.91
2018-02-27T17:47:29.614Z,75.63
2018-02-27T17:49:57.339Z,75.77
2018-02-27T17:52:25.357Z,75.01
2018-02-27T17:54:53.015Z,75.24
2018-02-27T17:57:20.621Z,75.85
2018-02-27T17:59:48.186Z,75.92
2018-02-27T18:02:15.758Z,75.52
2018-02-27T18:04:43.427Z,75.90
2018-02-27T18:07:10.996Z,76.40
2018-02-27T18:09:38.936Z,76.03
2018-02-27T18:12:06.533Z,76.84
2018-02-27T18:14:34.100Z,76.61
2018-02-27T18:17:01.981Z,76.45
2018-02-27T18:19:29.590Z,76.57
2018-02-27T18:21:57.164Z,76.73
2018-02-27T18:24:24.741Z,76.72
2018-02-27T18:26:52.353Z,76.70
2018-02-27T18:29:19.945Z,76.24
2018-02-27T18:31:47.721Z,77.46
2018-02-27T18:34:15.303Z,76.98
2018-02-27T18:36:42.872Z,76.76
2018-02-27T18:39:10.510Z,77.56
2018-02-27T18:41:38.873Z,77.43
2018-02-27T18:44:06.615Z,77.45
2018-02-27T18:46:34.180Z,77.14
2018-02-27T18:49:01.800Z,77.30
2018-02-27T18:51:29.372Z,77.57
2018-02-27T18:53:56.979Z,76.75
2018-02-27T18:56:24.590Z,76.97
2018-02-27T18:58:52.171Z,77.17
2018-02-27T19:01:19.745Z,77.49
2018-02-27T19:03:47.327Z,77.88
2018-02-27T19:06:14.896Z,78.33
2018-02-27T19:08:42.442Z,76.91
2018-02-27T19:11:10.058Z,77.36
2018-02-27T19:13:37.660Z,77.73
2018-02-27T19:16:05.216Z,77.32
2018-02-27T19:18:35.567Z,77.39
2018-02-27T19:21:03.172Z,78.10
2018-02-27T19:23:30.761Z,77.56
2018-02-27T19:25:58.345Z,77.13
2018-02-27T19:28:25.945Z,77.24
2018-02-27T19:30:56.130Z,77.07
2018-02-27T19:33:24.235Z,76.64
2018-02-27T19:35:52.189Z,76.80
2018-02-27T19:38:19.884Z,77.19
2018-02-27T19:40:47.504Z,77.03
2018-02-27T19:43:15.093Z,77.51
2018-02-27T19:45:42.656Z,77.14
2018-02-27T19:48:10.270Z,76.63
2018-02-27T19:50:37.985Z,76.96
2018-02-27T19:53:05.617Z,76.23
2018-02-27T19:55:33.263Z,75.81
2018-02-27T19:58:00.833Z,75.93
2018-02-27T20:00:28.406Z,75.81
2018-02-27T20:02:56.033Z,75.42
2018-02-27T20:05:23.738Z,75.47
2018-02-27T20:07:51.303Z,76.63
2018-02-27T20:10:19.047Z,75.89
2018-02-27T20:12:46.604Z,75.94
2018-02-27T20:15:14.223Z,75.95
2018-02-27T20:17:47.561Z,76.00
2018-02-27T20:20:15.118Z,75.73
2018-02-27T20:22:48.295Z,76.33
2018-02-27T20:25:15.859Z,77.07
2018-02-27T20:27:43.424Z,76.93
2018-02-27T20:30:11.199Z,77.02
2018-02-27T20:32:38.818Z,77.08
2018-02-27T20:35:06.363Z,77.46
2018-02-27T20:37:33.976Z,78.00
2018-02-27T20:40:01.549Z,77.92
2018-02-27T20:42:29.716Z,77.76
2018-02-27T20:44:57.324Z,77.70
2018-02-27T20:47:24.895Z,77.83
2018-02-27T20:49:52.501Z,77.40
2018-02-27T20:52:20.097Z,77.44
2018-02-27T20:54:47.710Z,77.80
2018-02-27T20:57:15.819Z,78.08
2018-02-27T20:59:43.470Z,77.95
2018-02-27T21:02:11.094Z,77.86
2018-02-27T21:04:38.652Z,78.36
2018-02-27T21:07:06.333Z,78.18
2018-02-27T21:09:33.900Z,78.10
2018-02-27T21:12:01.656Z,78.22
2018-02-27T21:14:29.268Z,77.37
2018-02-27T21:16:56.848Z,77.21
2018-02-27T21:19:24.400Z,77.75
2018-02-27T21:21:52.106Z,78.03
2018-02-27T21:24:19.768Z,78.44
2018-02-27T21:26:47.339Z,78.05
2018-02-27T21:29:14.924Z,78.18
2018-02-27T21:31:42.503Z,79.02
2018-02-27T21:34:10.058Z,79.45
2018-02-27T21:36:37.655Z,80.45
2018-02-27T21:39:05.311Z,81.04
2018-02-27T21:41:33.176Z,81.38
2018-02-27T21:51:05.576Z,81.80
2018-02-27T21:58:00.311Z,83.29
2018-02-27T22:00:27.898Z,83.46
2018-02-27T22:02:56.408Z,83.40
2018-02-27T22:05:24.149Z,83.62
2018-02-27T22:07:51.810Z,83.70
2018-02-27T22:10:19.996Z,83.76
2018-02-27T22:12:47.956Z,83.83
2018-02-27T22:15:15.528Z,84.01
2018-02-27T22:17:43.144Z,83.75
2018-02-27T22:20:10.933Z,84.32
2018-02-27T22:22:38.519Z,84.64
2018-02-27T22:25:06.268Z,84.44
2018-02-27T22:27:33.863Z,84.14
2018-02-27T22:30:01.598Z,84.66
2018-02-27T22:32:29.200Z,85.27
2018-02-27T22:34:56.919Z,85.80
2018-02-27T22:37:24.496Z,86.38
2018-02-27T22:39:52.244Z,86.86
2018-02-27T22:42:19.967Z,86.48
2018-02-27T22:44:47.782Z,86.60
2018-02-27T22:47:15.414Z,86.94
2018-02-27T22:49:42.974Z,86.87
2018-02-27T22:52:10.755Z,86.80
2018-02-27T22:54:38.420Z,86.79
2018-02-27T22:57:06.152Z,86.73
2018-02-27T22:59:34.007Z,86.53
2018-02-27T23:02:01.804Z,86.08
2018-02-27T23:04:29.687Z,86.23
2018-02-27T23:06:57.345Z,86.70
2018-02-27T23:09:25.332Z,86.83
2018-02-27T23:11:53.080Z,86.55
2018-02-27T23:14:20.856Z,85.65
2018-02-27T23:16:48.608Z,85.10
2018-02-27T23:19:16.270Z,85.00
2018-02-27T23:21:44.009Z,85.22
2018-02-27T23:24:45.969Z,85.60
2018-02-27T23:27:15.086Z,85.43
2018-02-27T23:29:44.204Z,85.33
2018-02-27T23:32:13.308Z,84.48
2018-02-27T23:34:46.024Z,84.74
2018-02-27T23:37:13.729Z,84.93
2018-02-27T23:39:41.719Z,84.52
2018-02-27T23:42:09.659Z,84.33
2018-02-27T23:44:37.540Z,83.93
2018-02-27T23:47:05.202Z,83.61
2018-02-27T23:49:32.781Z,84.28
2018-02-27T23:52:00.413Z,84.56
2018-02-27T23:54:28.186Z,84.26
2018-02-27T23:56:55.902Z,84.42
2018-02-27T23:59:23.541Z,84.72
